Airport ICAO


14:35 UTC

9°C

Few clouds


An affordable passengers' Moving Map for your aircraft. Made for the iPad and the iPhone
More information here

EGMD Lydd


Lydd UNITED KINGDOM   VFR


METAR EGMD 241420Z 01002KT 9999 FEW030 09/05 Q1011 0h15min

TAF EGMD 241353Z 2415/2424 36004KT 9999 FEW045 PROB30 TEMPO 2415/2418 7000 SHRA 0h42min





NOTAMS

OPEN